Brinegar, Kentucky
Current Conditions -  °F | °C
As of 2:10 PM on Friday 28 Nov 2014 (Local Time) from KSYM Reporting Station
Clear Clear  
Wind Chill: 30°   Ceiling: Unl
Heat Index: 34°   Visibility: 10mi
Dew Point: 16°   Wind: 5mph
Humidity: 48%   Direction: 170°S
Pressure: 30.3"   Gusts: NA
Location:  38.3543°N, 83.1837°W
Report Text: KSYM 281910Z AUTO 17004KT 10SM CLR 01/M09 A3030 RMK AO2
Loading
Personal Weather Stations






























Interactive Weather Map New forecast layout! Learn more

10-Day Weather Forecast

Advertisements
Track Severe Weather on mobile